Station: Smithton  

  Atmospheric Gas Attenuation - ITU Rec 676-11   ----------------- dB/100km -----------------
Date Time Temp RH % AH g/m3 Dew Point Wind Direction Speed kph Gust kph Barometer mB Rainfall Since 9am 24GHz 47GHz 76GHz 122GHz 134GHz 241GHz
07/05 08:50 6.3 81 6 3.3 17 17 1017.6 8.4 14.3 23.9 33.0 86.1 72.5 246.8
07/05 08:40 6.3 81 6 3.3 19 20 1017.6 8.4 14.3 23.9 33.0 86.1 72.5 246.8
07/05 08:30 6.3 80 5.93 3.1 22 32 1017.5 8.4 14.2 23.8 32.7 85.3 71.6 243.6
07/05 08:20 6.8 80 6.12 3.6 26 32 1017.2 8.4 14.6 24.0 33.2 86.8 73.6 250.7
07/05 08:10 6.9 83 6.39 4.2 22 24 1017.3 8.4 15.1 24.4 34.3 89.6 77.1 263.0
07/05 08:00 6.2 85 6.25 3.9 20 28 1017 8.4 14.9 24.3 34.0 88.8 75.9 258.7
07/05 07:50 5.7 85 6.05 3.4 20 22 1016.8 8.4 14.5 24.1 33.4 87.2 73.7 250.9
07/05 07:40 5.5 87 6.11 3.5 20 22 1016.6 8.4 14.6 24.3 33.7 88.0 74.7 254.3
07/05 07:30 4 84 5.35 1.5 17 19 1016.4 8.4 13.0 23.4 31.2 81.4 65.9 223.2
07/05 07:20 4.5 83 5.46 1.9 17 17 1016.2 8.4 13.2 23.5 31.5 82.1 66.9 226.8
07/05 07:10 4.9 82 5.54 2.1 19 19 1015.9 8.4 13.4 23.5 31.6 82.5 67.6 229.3
07/05 07:00 5.4 82 5.73 2.6 17 22 1015.8 8.4 13.8 23.7 32.2 84.0 69.7 236.7
07/05 06:50 5.7 81 5.77 2.7 20 22 1015.9 8.4 13.9 23.7 32.2 84.1 69.9 237.6
07/05 06:40 5.7 80 5.7 2.5 24 28 1015.8 8.4 13.7 23.5 31.9 83.3 69.0 234.4
07/05 06:30 5.6 81 5.73 2.6 24 33 1015.7 8.4 13.8 23.6 32.1 83.7 69.5 236.0
07/05 06:20 5.7 81 5.77 2.7 22 26 1015.5 8.4 13.9 23.6 32.2 84.0 69.9 237.6
07/05 06:10 5.9 81 5.84 2.9 24 26 1015.2 8.4 14.0 23.7 32.4 84.5 70.6 240.1
07/05 06:00 5.5 82 5.76 2.7 22 32 1014.9 8.4 13.8 23.7 32.2 84.1 69.9 237.6
07/05 05:50 5.3 84 5.83 2.8 20 24 1014.8 8.4 14.0 23.8 32.6 85.1 71.0 241.4
07/05 05:40 5.3 83 5.76 2.7 19 20 1015 8.4 13.9 23.7 32.3 84.3 70.1 238.2
07/05 05:30 5.3 81 5.62 2.3 19 22 1014.9 8.4 13.6 23.5 31.7 82.8 68.3 231.7
07/05 05:20 5.2 79 5.44 1.9 19 20 1014.6 8.4 13.2 23.2 31.0 81.0 66.0 223.6
07/05 05:10 5.8 77 5.52 2.1 24 26 1014.4 8.4 13.3 23.2 31.1 81.2 66.5 225.5
07/05 05:00 6.4 75 5.59 2.3 32 39 1014.2 8.4 13.4 23.1 31.2 81.3 66.9 227.0
07/05 04:50 6.7 76 5.78 2.8 33 41 1014 8.4 13.8 23.3 31.8 82.9 69.1 234.7
07/05 04:40 6.7 80 6.08 3.5 32 39 1014 8.4 14.5 23.8 33.0 86.1 73.0 248.5
07/05 04:30 6.4 84 6.26 3.9 26 32 1014 8.4 14.9 24.2 33.8 88.4 75.7 257.9
07/05 04:20 6.5 87 6.53 4.5 28 32 1013.8 8.4 15.5 24.6 34.9 91.2 79.2 270.2
07/05 04:10 6.2 90 6.62 4.7 24 26 1013.7 8.2 15.7 24.8 35.4 92.5 80.7 275.5
07/05 04:00 6 91 6.61 4.6 20 26 1013.7 8.2 15.7 24.9 35.4 92.7 80.8 275.7
07/05 03:50 5 91 6.19 3.7 19 22 1013.8 8.2 14.8 24.5 34.1 89.2 76.1 259.1
07/05 03:40 5.1 91 6.23 3.8 17 19 1013.6 8.2 14.9 24.5 34.2 89.5 76.5 260.7
07/05 03:30 4.9 91 6.15 3.6 15 17 1013.3 8.2 14.7 24.4 34.0 88.8 75.6 257.5
07/05 03:20 5 91 6.19 3.7 17 19 1013.5 8.2 14.8 24.4 34.1 89.2 76.1 259.1
07/05 03:10 5.2 90 6.2 3.7 17 17 1013.5 8.2 14.8 24.4 34.1 89.1 76.0 258.9
07/05 03:00 5.7 90 6.41 4.2 20 26 1013.5 8.2 15.2 24.6 34.7 90.8 78.4 267.2
07/05 02:50 5.9 91 6.57 4.5 19 22 1013.6 8.2 15.6 24.8 35.3 92.3 80.3 274.1
07/05 02:40 5.9 91 6.57 4.5 20 24 1013.6 8.2 15.6 24.8 35.3 92.3 80.3 274.1
07/05 02:30 5.7 90 6.41 4.2 20 26 1013.8 8.2 15.2 24.6 34.7 90.8 78.4 267.2
07/05 02:20 5.6 89 6.3 3.9 19 20 1013.5 8.2 15.0 24.5 34.3 89.7 77.0 262.3
07/05 02:10 5.9 89 6.42 4.2 22 30 1013.4 8.2 15.3 24.6 34.7 90.7 78.3 266.9
07/05 02:00 6 90 6.54 4.5 32 43 1013.4 8.2 15.5 24.7 35.1 91.9 79.8 272.3
07/05 01:50 6.2 90 6.62 4.7 37 43 1013.6 7.8 15.7 24.8 35.4 92.5 80.7 275.5
07/05 01:40 6.2 91 6.7 4.8 30 39 1013.3 7.6 15.8 24.9 35.7 93.4 81.8 279.2
07/05 01:30 5.8 91 6.52 4.4 19 24 1013 7.6 15.5 24.8 35.1 91.8 79.7 272.0
07/05 01:20 5.7 91 6.48 4.3 19 20 1012.8 7.6 15.4 24.7 35.0 91.5 79.3 270.3
07/05 01:10 5.8 90 6.45 4.3 19 20 1012.5 7.6 15.3 24.6 34.8 91.0 78.7 268.5
07/05 01:00 6.5 90 6.75 5 28 39 1012.4 7.6 15.9 24.9 35.7 93.5 82.1 280.3
07/05 00:50 6.7 91 6.92 5.3 35 41 1012.5 7.6 16.3 25.1 36.3 95.1 84.2 287.7
07/05 00:40 6.2 91 6.7 4.8 19 20 1012.4 7.2 15.8 24.9 35.6 93.3 81.7 279.0
07/05 00:30 6.1 91 6.65 4.7 17 20 1012.4 7.2 15.7 24.9 35.5 92.9 81.1 277.0
07/05 00:20 6.1 91 6.65 4.7 20 20 1012.3 7.2 15.7 24.9 35.5 92.8 81.1 276.9
07/05 00:10 6.1 91 6.65 4.7 20 22 1012.6 7.2 15.7 24.9 35.5 92.9 81.1 277.0
07/05 00:00 6 90 6.54 4.5 20 28 1012.3 7.2 15.5 24.7 35.1 91.8 79.7 272.0
06/05 23:50 6 90 6.54 4.5 22 26 1012.4 7.2 15.5 24.7 35.1 91.8 79.7 272.1
06/05 23:40 5.7 90 6.41 4.2 17 19 1012.3 7 15.2 24.6 34.7 90.7 78.3 266.9
06/05 23:30 5.4 89 6.21 3.7 13 17 1011.9 7 14.8 24.3 34.0 88.8 75.8 258.3
06/05 23:20 5.6 89 6.3 3.9 13 15 1011.7 7 15.0 24.4 34.2 89.5 76.8 261.9
06/05 23:10 5.8 89 6.38 4.1 19 20 1011.8 7 15.2 24.5 34.5 90.2 77.7 265.0
06/05 23:00 5.7 89 6.34 4 17 22 1012 7 15.1 24.4 34.4 89.9 77.3 263.5
06/05 22:50 5.7 88 6.27 3.9 17 19 1012.1 7 14.9 24.3 34.1 89.1 76.4 260.2
06/05 22:40 5.7 88 6.27 3.9 22 26 1012.3 7 14.9 24.3 34.1 89.1 76.4 260.3
06/05 22:30 5.8 88 6.31 4 32 46 1012.2 7 15.0 24.4 34.2 89.5 76.8 261.8
06/05 22:20 6 87 6.32 4 39 43 1012.3 7 15.0 24.3 34.2 89.3 76.8 261.6
06/05 22:10 6.4 86 6.41 4.2 43 48 1012.4 6.2 15.2 24.4 34.4 89.9 77.6 264.6
06/05 22:00 6.7 87 6.61 4.7 26 35 1012.3 6 15.6 24.6 35.0 91.7 80.0 272.9
06/05 21:50 6.6 87 6.57 4.6 28 32 1012.1 6 15.5 24.6 34.9 91.4 79.5 271.3
06/05 21:40 6.8 90 6.89 5.3 33 39 1012 6 16.2 25.0 36.1 94.6 83.6 285.8
06/05 21:30 6.2 90 6.62 4.7 15 17 1011.6 6 15.7 24.8 35.3 92.3 80.6 275.0
06/05 21:20 6.3 90 6.67 4.8 15 17 1011.6 6 15.8 24.8 35.4 92.8 81.1 277.0
06/05 21:10 6.3 89 6.59 4.6 17 19 1011.6 6 15.6 24.7 35.1 91.9 80.0 273.2
06/05 21:00 6.3 89 6.59 4.6 15 17 1011.5 6 15.6 24.7 35.1 91.9 80.0 273.2
06/05 20:50 6.3 88 6.52 4.5 15 17 1011.5 6 15.5 24.6 34.8 91.1 79.1 269.9
06/05 20:40 6.5 88 6.6 4.7 20 24 1011.5 6 15.6 24.6 35.1 91.7 80.0 273.0
06/05 20:30 6.9 88 6.78 5.1 30 44 1011.2 6 16.0 24.8 35.6 93.2 82.0 280.0
06/05 20:20 7.2 87 6.83 5.2 37 44 1011.6 6 16.1 24.8 35.7 93.4 82.3 281.4
06/05 20:10 7.6 88 7.09 5.7 19 20 1011 5.8 16.6 25.1 36.5 95.7 85.4 292.1
06/05 20:00 7.6 88 7.09 5.7 19 24 1010.9 5.8 16.6 25.1 36.5 95.7 85.4 292.1
06/05 19:50 8.1 88 7.33 6.2 22 26 1010.8 5.8 17.1 25.4 37.3 97.7 88.1 301.6
06/05 19:40 8.1 87 7.24 6.1 24 26 1010.7 5.8 16.9 25.2 36.9 96.7 86.8 297.3
06/05 19:30 8.3 87 7.34 6.3 20 30 1010.7 5.8 17.1 25.3 37.2 97.6 88.0 301.2
06/05 19:20 8.2 87 7.29 6.2 19 20 1010.5 5.8 17.0 25.3 37.1 97.1 87.4 299.2
06/05 19:10 8.2 86 7.21 6 22 26 1010.5 5.8 16.9 25.1 36.7 96.3 86.3 295.4
06/05 19:00 8.5 87 7.43 6.5 26 37 1010.5 5.8 17.3 25.4 37.5 98.3 88.9 304.7
06/05 18:50 8.9 89 7.8 7.2 28 35 1011.1 5.8 18.1 25.9 38.9 102.0 93.6 320.9
06/05 18:40 9.1 91 8.08 7.7 20 24 1010.9 5.8 18.7 26.3 39.9 104.8 97.1 333.5
06/05 18:30 9.3 92 8.27 8.1 20 30 1010.7 5.8 19.1 26.6 40.6 106.6 99.5 341.8
06/05 18:20 9.3 92 8.27 8.1 20 22 1010.3 5.8 19.1 26.6 40.6 106.6 99.5 341.6
06/05 18:10 9.3 92 8.27 8.1 20 22 1010.4 5.8 19.1 26.6 40.6 106.6 99.5 341.7
06/05 18:00 9.4 92 8.32 8.2 22 35 1010.3 5.6 19.2 26.6 40.8 107.0 100.0 343.6
06/05 17:50 9.6 92 8.43 8.4 20 28 1010.2 5.4 19.4 26.7 41.1 108.0 101.3 348.1
06/05 17:40 9.7 92 8.48 8.5 26 30 1010.1 5.2 19.5 26.8 41.3 108.4 101.8 350.0
06/05 17:30 9.8 92 8.54 8.6 28 43 1010.2 4.8 19.7 26.9 41.5 108.9 102.5 352.5
06/05 17:20 9.8 92 8.54 8.6 30 32 1010.1 4.8 19.7 26.9 41.5 108.9 102.5 352.5
06/05 17:10 9.8 91 8.45 8.4 24 30 1009.8 4.8 19.5 26.7 41.1 107.9 101.3 348.0
06/05 17:00 9.9 91 8.5 8.5 26 35 1010.1 4.2 19.6 26.8 41.2 108.3 101.8 350.1
06/05 16:50 10.1 91 8.61 8.7 30 35 1009.9 3.4 19.8 26.9 41.6 109.3 103.1 354.4
06/05 16:40 10.5 89 8.63 8.8 32 37 1009.9 2.6 19.8 26.8 41.5 108.9 102.8 353.6
06/05 16:30 10.8 90 8.9 9.2 28 41 1009.7 2 20.4 27.2 42.4 111.5 106.1 365.2
06/05 16:20 11.1 91 9.17 9.7 28 32 1009.6 1.6 21.0 27.5 43.4 114.1 109.5 376.9

Last Refresh: 07-May-2026 08:32:39

Bureau of Meteorology